createdAt,value
2023-08-08T00:02:01.875Z,98966.00
2023-08-08T00:04:28.922Z,98953.00
2023-08-08T00:06:55.870Z,98965.00
2023-08-08T00:09:22.779Z,98966.00
2023-08-08T00:11:50.026Z,98977.00
2023-08-08T00:14:16.998Z,98948.00
2023-08-08T00:16:43.921Z,98976.00
2023-08-08T00:19:10.988Z,98974.00
2023-08-08T00:21:37.932Z,98969.00
2023-08-08T00:24:05.180Z,98973.00
2023-08-08T00:26:32.080Z,98959.00
2023-08-08T00:28:58.972Z,98974.00
2023-08-08T00:31:26.005Z,98974.00
2023-08-08T00:33:53.016Z,98969.00
2023-08-08T00:36:19.955Z,98970.00
2023-08-08T00:38:46.883Z,98972.00
2023-08-08T00:41:13.809Z,98954.00
2023-08-08T00:43:40.743Z,98966.00
2023-08-08T00:46:08.324Z,98976.00
2023-08-08T00:48:35.460Z,98968.00
2023-08-08T00:51:02.512Z,98978.00
2023-08-08T00:53:32.667Z,98968.00
2023-08-08T00:56:00.442Z,98996.00
2023-08-08T00:58:28.771Z,98958.00
2023-08-08T01:00:58.861Z,98972.00
2023-08-08T01:03:25.928Z,98968.00
2023-08-08T01:06:11.947Z,98980.00
2023-08-08T01:09:10.320Z,98977.00
2023-08-08T01:11:38.981Z,98980.00
2023-08-08T01:14:08.973Z,98979.00
2023-08-08T01:16:36.302Z,98975.00
2023-08-08T01:19:06.020Z,98981.00
2023-08-08T01:21:41.796Z,98984.00
2023-08-08T01:24:24.972Z,98964.00
2023-08-08T01:26:52.064Z,98980.00
2023-08-08T01:29:19.316Z,98975.00
2023-08-08T01:31:46.325Z,98974.00
2023-08-08T01:34:13.839Z,98975.00
2023-08-08T01:36:50.260Z,98987.00
2023-08-08T01:39:23.783Z,98996.00
2023-08-08T01:41:51.936Z,98996.00
2023-08-08T01:44:19.526Z,98989.00
2023-08-08T01:46:47.039Z,98999.00
2023-08-08T01:49:14.022Z,99000.00
2023-08-08T01:51:40.894Z,98991.00
2023-08-08T01:54:07.834Z,98995.00
2023-08-08T01:56:34.715Z,98983.00
2023-08-08T01:59:02.119Z,98983.00
2023-08-08T02:01:29.142Z,98986.00
2023-08-08T02:03:56.143Z,98995.00
2023-08-08T02:06:23.751Z,98997.00
2023-08-08T02:08:50.652Z,98992.00
2023-08-08T02:11:17.574Z,98988.00
2023-08-08T02:13:44.462Z,98988.00
2023-08-08T02:16:11.401Z,98990.00
2023-08-08T02:18:41.730Z,98985.00
2023-08-08T02:21:09.481Z,98982.00
2023-08-08T02:23:36.593Z,98996.00
2023-08-08T02:26:03.666Z,98985.00
2023-08-08T02:28:30.663Z,98991.00
2023-08-08T02:30:57.610Z,98990.00
2023-08-08T02:33:24.620Z,99005.00
2023-08-08T02:35:51.510Z,99002.00
2023-08-08T02:38:18.422Z,99000.00
2023-08-08T02:40:45.338Z,98997.00
2023-08-08T02:43:12.738Z,98995.00
2023-08-08T02:45:39.708Z,98991.00
2023-08-08T02:48:07.081Z,98998.00
2023-08-08T02:50:34.133Z,98992.00
2023-08-08T02:53:01.168Z,98990.00
2023-08-08T02:55:28.111Z,98993.00
2023-08-08T02:57:55.079Z,99000.00
2023-08-08T03:00:22.147Z,98994.00
2023-08-08T03:02:49.138Z,99006.00
2023-08-08T03:05:16.205Z,99003.00
2023-08-08T03:07:43.170Z,99006.00
2023-08-08T03:10:10.433Z,99016.00
2023-08-08T03:12:39.089Z,99003.00
2023-08-08T03:15:07.196Z,99018.00
2023-08-08T03:17:34.640Z,99022.00
2023-08-08T03:20:04.675Z,99006.00
2023-08-08T03:22:31.713Z,99025.00
2023-08-08T03:24:59.447Z,99026.00
2023-08-08T03:27:26.431Z,99022.00
2023-08-08T03:29:53.293Z,99023.00
2023-08-08T03:32:20.241Z,99021.00
2023-08-08T03:34:47.149Z,99027.00
2023-08-08T03:37:14.087Z,99028.00
2023-08-08T03:39:41.071Z,99038.00
2023-08-08T03:42:08.557Z,99037.00
2023-08-08T03:44:35.462Z,99049.00
2023-08-08T03:47:17.354Z,99047.00
2023-08-08T03:49:45.918Z,99064.00
2023-08-08T03:52:13.324Z,99044.00
2023-08-08T03:54:40.574Z,99060.00
2023-08-08T03:57:07.970Z,99054.00
2023-08-08T03:59:34.945Z,99061.00
2023-08-08T04:02:02.203Z,99052.00
2023-08-08T04:04:29.357Z,99056.00
2023-08-08T04:06:56.263Z,99060.00
2023-08-08T04:09:23.178Z,99074.00
2023-08-08T04:11:50.162Z,99085.00
2023-08-08T04:14:17.041Z,99075.00
2023-08-08T04:16:44.060Z,99086.00
2023-08-08T04:19:10.980Z,99090.00
2023-08-08T04:21:37.918Z,99083.00
2023-08-08T04:24:05.077Z,99094.00
2023-08-08T04:26:31.963Z,99096.00
2023-08-08T04:28:58.940Z,99098.00
2023-08-08T04:31:27.029Z,99098.00
2023-08-08T04:34:02.231Z,99117.00
2023-08-08T04:36:30.754Z,99116.00
2023-08-08T04:38:57.692Z,99113.00
2023-08-08T04:41:24.697Z,99123.00
2023-08-08T04:43:51.871Z,99119.00
2023-08-08T04:46:19.092Z,99122.00
2023-08-08T04:48:46.010Z,99122.00
2023-08-08T04:51:12.966Z,99130.00
2023-08-08T04:53:39.941Z,99125.00
2023-08-08T04:56:06.829Z,99129.00
2023-08-08T04:58:33.829Z,99140.00
2023-08-08T05:01:00.866Z,99131.00
2023-08-08T05:03:27.892Z,99127.00
2023-08-08T05:05:54.929Z,99126.00
2023-08-08T05:08:21.956Z,99144.00
2023-08-08T05:10:48.876Z,99138.00
2023-08-08T05:13:15.818Z,99147.00
2023-08-08T05:15:42.800Z,99144.00
2023-08-08T05:18:09.714Z,99149.00
2023-08-08T05:20:36.825Z,99153.00
2023-08-08T05:23:03.891Z,99156.00
2023-08-08T05:25:31.048Z,99160.00
2023-08-08T05:27:58.027Z,99159.00
2023-08-08T05:30:25.096Z,99160.00
2023-08-08T05:32:52.142Z,99163.00
2023-08-08T05:35:19.085Z,99161.00
2023-08-08T05:37:46.029Z,99166.00
2023-08-08T05:40:12.979Z,99179.00
2023-08-08T05:42:40.577Z,99186.00
2023-08-08T05:45:08.634Z,99176.00
2023-08-08T05:47:35.581Z,99185.00
2023-08-08T05:50:03.242Z,99182.00
2023-08-08T05:52:30.527Z,99191.00
2023-08-08T05:54:57.537Z,99186.00
2023-08-08T05:57:24.522Z,99197.00
2023-08-08T05:59:51.451Z,99194.00
2023-08-08T06:02:18.725Z,99194.00
2023-08-08T06:04:46.443Z,99199.00
2023-08-08T06:07:13.394Z,99189.00
2023-08-08T06:09:40.352Z,99203.00
2023-08-08T06:12:08.498Z,99201.00
2023-08-08T06:14:35.467Z,99207.00
2023-08-08T06:17:02.471Z,99204.00
2023-08-08T06:19:29.345Z,99221.00
2023-08-08T06:21:56.373Z,99221.00
2023-08-08T06:24:23.337Z,99212.00
2023-08-08T06:26:50.443Z,99223.00
2023-08-08T06:29:17.784Z,99222.00
2023-08-08T06:31:44.832Z,99221.00
2023-08-08T06:34:11.799Z,99219.00
2023-08-08T06:36:39.412Z,99155.00
2023-08-08T06:39:06.956Z,99229.00
2023-08-08T06:41:34.143Z,99231.00
2023-08-08T06:44:01.071Z,99220.00
2023-08-08T06:46:28.093Z,99224.00
2023-08-08T06:48:59.909Z,99219.00
2023-08-08T06:51:27.086Z,99243.00
2023-08-08T06:53:54.504Z,99216.00
2023-08-08T06:56:21.522Z,99248.00
2023-08-08T06:58:49.013Z,99240.00
2023-08-08T07:01:16.069Z,99224.00
2023-08-08T07:03:43.059Z,99250.00
2023-08-08T07:06:11.013Z,99258.00
2023-08-08T07:08:40.421Z,99257.00
2023-08-08T07:11:07.596Z,99262.00
2023-08-08T07:13:34.684Z,99270.00
2023-08-08T07:16:01.987Z,99264.00
2023-08-08T07:18:29.601Z,99267.00
2023-08-08T07:20:57.730Z,99272.00
2023-08-08T07:23:24.975Z,99252.00
2023-08-08T07:25:52.068Z,99277.00
2023-08-08T07:28:19.242Z,99285.00
2023-08-08T07:30:46.340Z,99278.00
2023-08-08T07:33:14.801Z,99289.00
2023-08-08T07:35:41.936Z,99287.00
2023-08-08T07:38:09.530Z,99285.00
2023-08-08T07:40:37.244Z,99289.00
2023-08-08T07:43:04.431Z,99296.00
2023-08-08T07:45:31.464Z,99305.00
2023-08-08T07:47:58.400Z,99298.00
2023-08-08T07:50:25.469Z,99320.00
2023-08-08T07:52:52.469Z,99291.00
2023-08-08T07:55:19.473Z,99312.00
2023-08-08T07:57:46.842Z,99283.00
2023-08-08T08:00:14.512Z,99316.00
2023-08-08T08:02:44.172Z,99315.00
2023-08-08T08:05:12.653Z,99317.00
2023-08-08T08:07:40.368Z,99318.00
2023-08-08T08:10:11.045Z,99312.00
2023-08-08T08:12:38.212Z,99329.00
2023-08-08T08:15:06.060Z,99322.00
2023-08-08T08:17:33.417Z,99326.00
2023-08-08T08:20:00.554Z,99331.00
2023-08-08T08:22:27.458Z,99340.00
2023-08-08T08:24:54.472Z,99337.00
2023-08-08T08:27:21.623Z,99356.00
2023-08-08T08:29:49.169Z,99339.00
2023-08-08T08:32:16.194Z,99342.00
2023-08-08T08:34:43.377Z,99348.00
2023-08-08T08:37:10.372Z,99359.00
2023-08-08T08:39:37.297Z,99346.00
2023-08-08T08:42:06.482Z,99350.00
2023-08-08T08:44:33.939Z,99351.00
2023-08-08T08:47:05.997Z,99359.00
2023-08-08T08:49:33.610Z,99355.00
2023-08-08T08:52:06.090Z,99347.00
2023-08-08T08:54:34.208Z,99366.00
2023-08-08T08:57:01.202Z,99367.00
2023-08-08T08:59:28.380Z,99361.00
2023-08-08T09:01:56.558Z,99378.00
2023-08-08T09:04:24.320Z,99365.00
2023-08-08T09:06:53.770Z,99373.00
2023-08-08T09:09:23.058Z,99365.00
2023-08-08T09:12:02.214Z,99365.00
2023-08-08T09:14:29.408Z,99347.00
2023-08-08T09:16:57.842Z,99369.00
2023-08-08T09:19:25.780Z,99349.00
2023-08-08T09:21:54.640Z,99374.00
2023-08-08T09:24:21.962Z,99376.00
2023-08-08T09:26:48.886Z,99386.00
2023-08-08T09:29:16.436Z,99364.00
2023-08-08T09:31:43.545Z,99366.00
2023-08-08T09:34:10.760Z,99351.00
2023-08-08T09:36:38.096Z,99354.00
2023-08-08T09:39:06.323Z,99360.00
2023-08-08T09:41:33.633Z,99370.00
2023-08-08T09:44:01.749Z,99366.00
2023-08-08T09:46:34.692Z,99358.00
2023-08-08T09:49:02.831Z,99369.00
2023-08-08T09:51:30.196Z,99304.00
2023-08-08T09:53:58.022Z,99363.00
2023-08-08T09:56:26.627Z,99386.00
2023-08-08T09:58:54.584Z,99393.00
2023-08-08T10:01:22.576Z,99385.00
2023-08-08T10:03:53.101Z,99372.00
2023-08-08T10:06:20.750Z,99376.00
2023-08-08T10:08:48.293Z,99383.00
2023-08-08T10:11:16.139Z,99387.00
2023-08-08T10:13:51.940Z,99393.00
2023-08-08T10:16:19.650Z,99402.00
2023-08-08T10:19:04.929Z,99400.00
2023-08-08T10:21:44.830Z,99383.00
2023-08-08T10:24:12.523Z,99397.00
2023-08-08T10:27:01.623Z,99399.00
2023-08-08T10:29:30.961Z,99414.00
2023-08-08T10:32:07.194Z,99408.00
2023-08-08T10:34:47.925Z,99409.00
2023-08-08T10:37:19.135Z,99419.00
2023-08-08T10:40:00.954Z,99415.00
2023-08-08T10:42:29.867Z,99427.00
2023-08-08T10:45:02.376Z,99429.00
2023-08-08T10:47:35.199Z,99431.00
2023-08-08T10:50:10.242Z,99417.00
2023-08-08T10:52:57.301Z,99425.00
2023-08-08T10:55:37.207Z,99408.00
2023-08-08T10:58:13.836Z,99425.00
2023-08-08T11:00:41.852Z,99425.00
2023-08-08T11:03:10.213Z,99431.00
2023-08-08T11:05:39.473Z,99420.00
2023-08-08T11:08:08.280Z,99437.00
2023-08-08T11:10:40.784Z,99431.00
2023-08-08T11:13:09.466Z,99451.00
2023-08-08T11:15:38.107Z,99453.00
2023-08-08T11:18:06.925Z,99445.00
2023-08-08T11:20:36.441Z,99457.00
2023-08-08T11:23:06.815Z,99460.00
2023-08-08T11:25:33.853Z,99451.00
2023-08-08T11:28:01.624Z,99461.00
2023-08-08T11:30:38.181Z,99462.00
2023-08-08T11:35:36.242Z,99451.00
2023-08-08T11:38:05.585Z,99451.00
2023-08-08T11:40:33.453Z,99454.00
2023-08-08T11:43:01.075Z,99472.00
2023-08-08T11:45:29.254Z,99503.00
2023-08-08T11:47:57.615Z,99528.00
2023-08-08T11:50:28.531Z,99510.00
2023-08-08T11:52:56.759Z,99496.00
2023-08-08T11:55:30.827Z,99498.00
2023-08-08T11:58:00.906Z,99502.00
2023-08-08T12:00:31.720Z,99501.00
2023-08-08T12:03:02.272Z,99498.00
2023-08-08T12:05:29.731Z,99511.00
2023-08-08T12:07:57.085Z,99508.00
2023-08-08T12:10:27.075Z,99513.00
2023-08-08T12:13:01.053Z,99517.00
2023-08-08T12:15:36.491Z,99520.00
2023-08-08T12:18:04.827Z,99530.00
2023-08-08T12:20:33.023Z,99505.00
2023-08-08T12:23:01.170Z,99519.00
2023-08-08T12:25:28.675Z,99513.00
2023-08-08T12:27:55.926Z,99523.00
2023-08-08T12:30:23.025Z,99531.00
2023-08-08T12:32:50.064Z,99528.00
2023-08-08T12:35:17.984Z,99521.00
2023-08-08T12:37:45.029Z,99511.00
2023-08-08T12:40:13.972Z,99520.00
2023-08-08T12:42:41.008Z,99517.00
2023-08-08T12:45:08.644Z,99522.00
2023-08-08T12:47:38.504Z,99515.00
2023-08-08T12:50:07.340Z,99534.00
2023-08-08T12:52:34.871Z,99528.00
2023-08-08T12:55:02.019Z,99535.00
2023-08-08T12:57:29.285Z,99520.00
2023-08-08T12:59:56.383Z,99532.00
2023-08-08T13:02:23.395Z,99530.00
2023-08-08T13:04:50.464Z,99532.00
2023-08-08T13:07:17.822Z,99544.00
2023-08-08T13:09:44.746Z,99540.00
2023-08-08T13:12:11.688Z,99553.00
2023-08-08T13:14:38.639Z,99552.00
2023-08-08T13:17:05.682Z,99591.00
2023-08-08T13:19:32.605Z,99605.00
2023-08-08T13:21:59.871Z,99612.00
2023-08-08T13:24:27.140Z,99609.00
2023-08-08T13:26:54.078Z,99594.00
2023-08-08T13:29:24.004Z,99601.00
2023-08-08T13:31:50.968Z,99590.00
2023-08-08T13:34:17.958Z,99586.00
2023-08-08T13:36:44.897Z,99592.00
2023-08-08T13:39:11.905Z,99584.00
2023-08-08T13:41:39.091Z,99524.00
2023-08-08T13:44:06.222Z,99588.00
2023-08-08T13:46:33.286Z,99602.00
2023-08-08T13:49:00.243Z,99597.00
2023-08-08T13:51:27.213Z,99589.00
2023-08-08T13:53:54.147Z,99591.00
2023-08-08T13:56:21.754Z,99580.00
2023-08-08T13:58:48.669Z,99583.00
2023-08-08T14:01:15.735Z,99583.00
2023-08-08T14:03:42.846Z,99575.00
2023-08-08T14:06:10.039Z,99577.00
2023-08-08T14:08:37.028Z,99578.00
2023-08-08T14:11:03.989Z,99581.00
2023-08-08T14:13:30.871Z,99569.00
2023-08-08T14:15:57.784Z,99574.00
2023-08-08T14:18:24.860Z,99568.00
2023-08-08T14:20:51.779Z,99580.00
2023-08-08T14:23:18.686Z,99580.00
2023-08-08T14:25:45.593Z,99574.00
2023-08-08T14:28:12.537Z,99573.00
2023-08-08T14:30:39.502Z,99569.00
2023-08-08T14:33:06.493Z,99580.00
2023-08-08T14:35:33.459Z,99564.00
2023-08-08T14:38:00.432Z,99567.00
2023-08-08T14:40:29.027Z,99564.00
2023-08-08T14:42:56.678Z,99578.00
2023-08-08T14:45:25.488Z,99571.00
2023-08-08T14:47:52.440Z,99570.00
2023-08-08T14:50:19.696Z,99579.00
2023-08-08T14:52:46.890Z,99575.00
2023-08-08T14:55:14.040Z,99569.00
2023-08-08T14:57:41.027Z,99574.00
2023-08-08T15:00:10.437Z,99567.00
2023-08-08T15:02:37.504Z,99577.00
2023-08-08T15:05:05.160Z,99574.00
2023-08-08T15:07:32.181Z,99585.00
2023-08-08T15:09:59.083Z,99576.00
2023-08-08T15:12:26.156Z,99569.00
2023-08-08T15:14:53.242Z,99571.00
2023-08-08T15:17:20.166Z,99577.00
2023-08-08T15:19:47.227Z,99568.00
2023-08-08T15:22:14.148Z,99573.00
2023-08-08T15:24:41.101Z,99555.00
2023-08-08T15:27:08.011Z,99573.00
2023-08-08T15:29:34.958Z,99571.00
2023-08-08T15:32:01.969Z,99578.00
2023-08-08T15:34:28.941Z,99589.00
2023-08-08T15:36:59.458Z,99581.00
2023-08-08T15:39:26.715Z,99587.00
2023-08-08T15:41:53.849Z,99605.00
2023-08-08T15:44:20.865Z,99604.00
2023-08-08T15:46:48.660Z,99601.00
2023-08-08T15:49:16.425Z,99602.00
2023-08-08T15:51:43.625Z,99601.00
2023-08-08T15:54:10.612Z,99600.00
2023-08-08T15:56:39.359Z,99597.00
2023-08-08T15:59:07.075Z,99604.00
2023-08-08T16:01:34.823Z,99601.00
2023-08-08T16:04:01.902Z,99602.00
2023-08-08T16:06:30.120Z,99593.00
2023-08-08T16:08:57.134Z,99593.00
2023-08-08T16:11:24.124Z,99598.00
2023-08-08T16:13:51.207Z,99598.00
2023-08-08T16:16:18.166Z,99596.00
2023-08-08T16:18:45.050Z,99601.00
2023-08-08T16:21:12.348Z,99609.00
2023-08-08T16:23:39.378Z,99614.00
2023-08-08T16:26:06.443Z,99602.00
2023-08-08T16:28:33.550Z,99612.00
2023-08-08T16:31:00.627Z,99610.00
2023-08-08T16:33:27.637Z,99606.00
2023-08-08T16:35:58.401Z,99620.00
2023-08-08T16:38:25.466Z,99618.00
2023-08-08T16:40:52.398Z,99622.00
2023-08-08T16:43:19.374Z,99618.00
2023-08-08T16:45:46.324Z,99614.00
2023-08-08T16:48:13.233Z,99600.00
2023-08-08T16:50:40.184Z,99605.00
2023-08-08T16:53:07.711Z,99619.00
2023-08-08T16:55:34.663Z,99626.00
2023-08-08T16:58:01.578Z,99629.00
2023-08-08T17:00:28.525Z,99642.00
2023-08-08T17:02:55.501Z,99645.00
2023-08-08T17:05:22.501Z,99656.00
2023-08-08T17:07:49.543Z,99654.00
2023-08-08T17:10:16.491Z,99655.00
2023-08-08T17:12:43.574Z,99651.00
2023-08-08T17:15:10.901Z,99653.00
2023-08-08T17:17:37.966Z,99674.00
2023-08-08T17:20:06.529Z,99682.00
2023-08-08T17:22:34.552Z,99666.00
2023-08-08T17:25:01.578Z,99681.00
2023-08-08T17:27:29.147Z,99687.00
2023-08-08T17:29:56.103Z,99678.00
2023-08-08T17:32:23.067Z,99685.00
2023-08-08T17:34:50.121Z,99708.00
2023-08-08T17:37:17.127Z,99701.00
2023-08-08T17:39:44.099Z,99691.00
2023-08-08T17:42:11.209Z,99700.00
2023-08-08T17:44:38.129Z,99712.00
2023-08-08T17:47:05.054Z,99711.00
2023-08-08T17:49:31.985Z,99723.00
2023-08-08T17:51:59.285Z,99718.00
2023-08-08T17:54:26.557Z,99701.00
2023-08-08T17:56:53.659Z,99709.00
2023-08-08T17:59:21.109Z,99701.00
2023-08-08T18:01:48.362Z,99708.00
2023-08-08T18:04:15.353Z,99705.00
2023-08-08T18:06:42.335Z,99687.00
2023-08-08T18:09:09.298Z,99689.00
2023-08-08T18:11:39.648Z,99685.00
2023-08-08T18:14:08.263Z,99685.00
2023-08-08T18:16:37.055Z,99687.00
2023-08-08T18:19:05.091Z,99687.00
2023-08-08T18:21:33.102Z,99690.00
2023-08-08T18:24:00.303Z,99685.00
2023-08-08T18:26:27.926Z,99676.00
2023-08-08T18:28:55.018Z,99687.00
2023-08-08T18:31:22.173Z,99682.00
2023-08-08T18:33:49.222Z,99676.00
2023-08-08T18:36:16.121Z,99686.00
2023-08-08T18:38:43.789Z,99688.00
2023-08-08T18:41:11.346Z,99676.00
2023-08-08T18:43:38.294Z,99704.00
2023-08-08T18:46:06.950Z,99682.00
2023-08-08T18:48:33.983Z,99670.00
2023-08-08T18:51:01.195Z,99671.00
2023-08-08T18:53:28.273Z,99668.00
2023-08-08T18:55:55.173Z,99662.00
2023-08-08T18:58:22.143Z,99622.00
2023-08-08T19:00:49.979Z,99668.00
2023-08-08T19:03:18.749Z,99664.00
2023-08-08T19:05:46.188Z,99652.00
2023-08-08T19:08:13.262Z,99658.00
2023-08-08T19:10:40.344Z,99659.00
2023-08-08T19:13:09.980Z,99647.00
2023-08-08T19:15:38.245Z,99667.00
2023-08-08T19:18:05.389Z,99663.00
2023-08-08T19:20:32.338Z,99670.00
2023-08-08T19:22:59.514Z,99667.00
2023-08-08T19:25:26.575Z,99669.00
2023-08-08T19:27:53.536Z,99667.00
2023-08-08T19:30:22.656Z,99674.00
2023-08-08T19:32:50.135Z,99670.00
2023-08-08T19:35:17.230Z,99669.00
2023-08-08T19:37:48.321Z,99676.00
2023-08-08T19:40:16.866Z,99675.00
2023-08-08T19:42:44.132Z,99676.00
2023-08-08T19:45:11.018Z,99670.00
2023-08-08T19:47:38.263Z,99677.00
2023-08-08T19:50:06.120Z,99675.00
2023-08-08T19:52:33.245Z,99668.00
2023-08-08T19:55:00.168Z,99672.00
2023-08-08T19:57:27.184Z,99679.00
2023-08-08T19:59:54.865Z,99676.00
2023-08-08T20:02:23.393Z,99647.00
2023-08-08T20:04:52.414Z,99661.00
2023-08-08T20:07:19.392Z,99664.00
2023-08-08T20:09:46.405Z,99657.00
2023-08-08T20:12:13.370Z,99665.00
2023-08-08T20:14:40.403Z,99664.00
2023-08-08T20:17:07.298Z,99677.00
2023-08-08T20:19:35.042Z,99674.00
2023-08-08T20:22:03.174Z,99691.00
2023-08-08T20:24:30.812Z,99694.00
2023-08-08T20:26:57.776Z,99687.00
2023-08-08T20:29:24.843Z,99678.00
2023-08-08T20:31:51.870Z,99681.00
2023-08-08T20:34:18.821Z,99678.00
2023-08-08T20:36:45.762Z,99675.00
2023-08-08T20:39:13.609Z,99670.00
2023-08-08T20:41:43.583Z,99677.00
2023-08-08T20:44:10.583Z,99678.00
2023-08-08T20:46:37.964Z,99677.00
2023-08-08T20:49:05.189Z,99683.00
2023-08-08T20:51:32.444Z,99666.00
2023-08-08T20:54:00.453Z,99672.00
2023-08-08T20:56:27.343Z,99701.00
2023-08-08T20:58:54.561Z,99685.00
2023-08-08T21:01:21.523Z,99668.00
2023-08-08T21:03:49.676Z,99687.00
2023-08-08T21:06:16.646Z,99685.00
2023-08-08T21:08:44.898Z,99675.00
2023-08-08T21:11:11.801Z,99685.00
2023-08-08T21:13:38.758Z,99688.00
2023-08-08T21:16:06.253Z,99684.00
2023-08-08T21:18:33.234Z,99686.00
2023-08-08T21:21:02.871Z,99690.00
2023-08-08T21:23:31.332Z,99697.00
2023-08-08T21:25:58.381Z,99702.00
2023-08-08T21:28:25.989Z,99698.00
2023-08-08T21:30:53.176Z,99703.00
2023-08-08T21:33:21.171Z,99694.00
2023-08-08T21:35:52.497Z,99677.00
2023-08-08T21:38:19.447Z,99694.00
2023-08-08T21:40:47.258Z,99699.00
2023-08-08T21:43:14.175Z,99685.00
2023-08-08T21:45:41.429Z,99684.00
2023-08-08T21:48:08.355Z,99680.00
2023-08-08T21:50:35.264Z,99685.00
2023-08-08T21:53:02.175Z,99705.00
2023-08-08T21:55:29.144Z,99701.00
2023-08-08T21:57:56.028Z,99703.00
2023-08-08T22:00:22.946Z,99710.00
2023-08-08T22:02:50.184Z,99700.00
2023-08-08T22:05:17.257Z,99713.00
2023-08-08T22:07:45.403Z,99713.00
2023-08-08T22:10:12.612Z,99723.00
2023-08-08T22:12:39.530Z,99723.00
2023-08-08T22:15:07.787Z,99724.00
2023-08-08T22:17:34.702Z,99727.00
2023-08-08T22:20:01.781Z,99745.00
2023-08-08T22:22:28.665Z,99744.00
2023-08-08T22:24:55.584Z,99737.00
2023-08-08T22:27:22.477Z,99739.00
2023-08-08T22:29:49.353Z,99741.00
2023-08-08T22:32:16.245Z,99742.00
2023-08-08T22:34:43.093Z,99730.00
2023-08-08T22:37:09.993Z,99730.00
2023-08-08T22:39:36.868Z,99716.00
2023-08-08T22:42:04.080Z,99707.00
2023-08-08T22:44:32.366Z,99703.00
2023-08-08T22:46:59.539Z,99695.00
2023-08-08T22:49:26.758Z,99697.00
2023-08-08T22:51:53.658Z,99687.00
2023-08-08T22:54:20.518Z,99698.00
2023-08-08T22:56:47.443Z,99712.00
2023-08-08T22:59:14.377Z,99707.00
2023-08-08T23:01:41.453Z,99716.00
2023-08-08T23:04:08.453Z,99704.00
2023-08-08T23:06:35.336Z,99700.00
2023-08-08T23:09:02.219Z,99701.00
2023-08-08T23:11:29.072Z,99701.00
2023-08-08T23:13:56.282Z,99701.00
2023-08-08T23:16:23.231Z,99693.00
2023-08-08T23:18:50.141Z,99695.00
2023-08-08T23:21:17.075Z,99691.00
2023-08-08T23:23:44.045Z,99684.00
2023-08-08T23:26:10.991Z,99682.00
2023-08-08T23:28:37.985Z,99679.00
2023-08-08T23:31:05.416Z,99680.00
2023-08-08T23:33:32.312Z,99686.00
2023-08-08T23:35:59.337Z,99690.00
2023-08-08T23:38:26.412Z,99689.00
2023-08-08T23:40:53.323Z,99694.00
2023-08-08T23:43:20.229Z,99700.00
2023-08-08T23:45:47.161Z,99694.00
2023-08-08T23:48:14.165Z,99694.00
2023-08-08T23:50:41.161Z,99702.00
2023-08-08T23:53:08.173Z,99702.00
2023-08-08T23:55:35.337Z,99694.00
2023-08-08T23:58:02.268Z,99692.00
